sensor_id;sensor_type;location;lat;lon;timestamp;temperature;humidity
12682;DHT22;6405;59.208;18.216;2024-02-28T00:01:53;0.80;99.90
12682;DHT22;6405;59.208;18.216;2024-02-28T00:04:19;0.80;99.90
12682;DHT22;6405;59.208;18.216;2024-02-28T00:06:45;0.80;99.90
12682;DHT22;6405;59.208;18.216;2024-02-28T00:09:14;0.80;99.90
12682;DHT22;6405;59.208;18.216;2024-02-28T00:11:48;1.00;99.90
12682;DHT22;6405;59.208;18.216;2024-02-28T00:14:14;0.90;99.90
12682;DHT22;6405;59.208;18.216;2024-02-28T00:16:44;1.00;99.90
12682;DHT22;6405;59.208;18.216;2024-02-28T00:19:11;0.80;99.90
12682;DHT22;6405;59.208;18.216;2024-02-28T00:21:40;0.80;99.90
12682;DHT22;6405;59.208;18.216;2024-02-28T00:24:06;0.80;99.90
12682;DHT22;6405;59.208;18.216;2024-02-28T00:26:32;0.70;99.90
12682;DHT22;6405;59.208;18.216;2024-02-28T00:28:58;0.90;99.90
12682;DHT22;6405;59.208;18.216;2024-02-28T00:31:24;0.70;99.90
12682;DHT22;6405;59.208;18.216;2024-02-28T00:33:50;0.90;99.90
12682;DHT22;6405;59.208;18.216;2024-02-28T00:36:16;0.70;99.90
12682;DHT22;6405;59.208;18.216;2024-02-28T00:38:42;0.70;99.90
12682;DHT22;6405;59.208;18.216;2024-02-28T00:41:08;0.70;99.90
12682;DHT22;6405;59.208;18.216;2024-02-28T00:43:34;0.70;99.90
12682;DHT22;6405;59.208;18.216;2024-02-28T00:45:59;0.80;99.90
12682;DHT22;6405;59.208;18.216;2024-02-28T00:48:25;0.70;99.90
12682;DHT22;6405;59.208;18.216;2024-02-28T00:50:52;0.80;99.90
12682;DHT22;6405;59.208;18.216;2024-02-28T00:53:19;0.70;99.90
12682;DHT22;6405;59.208;18.216;2024-02-28T00:55:45;0.70;99.90
12682;DHT22;6405;59.208;18.216;2024-02-28T00:58:11;0.80;99.90
12682;DHT22;6405;59.208;18.216;2024-02-28T01:00:36;0.70;99.90
12682;DHT22;6405;59.208;18.216;2024-02-28T01:03:02;0.70;99.90
12682;DHT22;6405;59.208;18.216;2024-02-28T01:05:34;0.70;99.90
12682;DHT22;6405;59.208;18.216;2024-02-28T01:08:00;0.70;99.90
12682;DHT22;6405;59.208;18.216;2024-02-28T01:10:26;0.70;99.90
12682;DHT22;6405;59.208;18.216;2024-02-28T01:12:51;0.90;99.90
12682;DHT22;6405;59.208;18.216;2024-02-28T01:15:17;0.80;99.90
12682;DHT22;6405;59.208;18.216;2024-02-28T01:17:43;0.70;99.90
12682;DHT22;6405;59.208;18.216;2024-02-28T01:20:09;0.70;99.90
12682;DHT22;6405;59.208;18.216;2024-02-28T01:22:35;0.70;99.90
12682;DHT22;6405;59.208;18.216;2024-02-28T01:25:02;0.70;99.90
12682;DHT22;6405;59.208;18.216;2024-02-28T01:27:28;0.60;99.90
12682;DHT22;6405;59.208;18.216;2024-02-28T01:29:54;0.60;99.90
12682;DHT22;6405;59.208;18.216;2024-02-28T01:32:20;0.60;99.90
12682;DHT22;6405;59.208;18.216;2024-02-28T01:34:46;0.60;99.90
12682;DHT22;6405;59.208;18.216;2024-02-28T01:37:12;0.60;99.90
12682;DHT22;6405;59.208;18.216;2024-02-28T01:39:37;0.60;99.90
12682;DHT22;6405;59.208;18.216;2024-02-28T01:42:03;0.70;99.90
12682;DHT22;6405;59.208;18.216;2024-02-28T01:44:29;0.60;99.90
12682;DHT22;6405;59.208;18.216;2024-02-28T01:46:55;0.60;99.90
12682;DHT22;6405;59.208;18.216;2024-02-28T01:49:23;0.60;99.90
12682;DHT22;6405;59.208;18.216;2024-02-28T01:51:50;0.70;99.90
12682;DHT22;6405;59.208;18.216;2024-02-28T01:54:16;0.50;99.90
12682;DHT22;6405;59.208;18.216;2024-02-28T01:56:43;0.50;99.90
12682;DHT22;6405;59.208;18.216;2024-02-28T01:59:10;0.50;99.90
12682;DHT22;6405;59.208;18.216;2024-02-28T02:01:37;0.50;99.90
12682;DHT22;6405;59.208;18.216;2024-02-28T02:04:03;0.50;99.90
12682;DHT22;6405;59.208;18.216;2024-02-28T02:06:30;0.50;99.90
12682;DHT22;6405;59.208;18.216;2024-02-28T02:08:56;0.50;99.90
12682;DHT22;6405;59.208;18.216;2024-02-28T02:11:23;0.50;99.90
12682;DHT22;6405;59.208;18.216;2024-02-28T02:13:50;0.50;99.90
12682;DHT22;6405;59.208;18.216;2024-02-28T02:16:16;0.50;99.90
12682;DHT22;6405;59.208;18.216;2024-02-28T02:18:42;0.50;99.90
12682;DHT22;6405;59.208;18.216;2024-02-28T02:21:09;0.50;99.90
12682;DHT22;6405;59.208;18.216;2024-02-28T02:23:36;0.50;99.90
12682;DHT22;6405;59.208;18.216;2024-02-28T02:26:07;0.50;99.90
12682;DHT22;6405;59.208;18.216;2024-02-28T02:28:32;0.50;99.90
12682;DHT22;6405;59.208;18.216;2024-02-28T02:30:58;0.50;99.90
12682;DHT22;6405;59.208;18.216;2024-02-28T02:33:24;0.50;99.90
12682;DHT22;6405;59.208;18.216;2024-02-28T02:35:50;0.50;99.90
12682;DHT22;6405;59.208;18.216;2024-02-28T02:38:15;0.50;99.90
12682;DHT22;6405;59.208;18.216;2024-02-28T02:40:41;0.50;99.90
12682;DHT22;6405;59.208;18.216;2024-02-28T02:43:07;0.50;99.90
12682;DHT22;6405;59.208;18.216;2024-02-28T02:45:33;0.50;99.90
12682;DHT22;6405;59.208;18.216;2024-02-28T02:47:58;0.50;99.90
12682;DHT22;6405;59.208;18.216;2024-02-28T02:50:24;0.50;99.90
12682;DHT22;6405;59.208;18.216;2024-02-28T02:52:49;0.50;99.90
12682;DHT22;6405;59.208;18.216;2024-02-28T02:55:15;0.50;99.90
12682;DHT22;6405;59.208;18.216;2024-02-28T02:57:41;0.50;99.90
12682;DHT22;6405;59.208;18.216;2024-02-28T03:00:09;0.50;99.90
12682;DHT22;6405;59.208;18.216;2024-02-28T03:02:35;0.50;99.90
12682;DHT22;6405;59.208;18.216;2024-02-28T03:05:04;0.60;99.90
12682;DHT22;6405;59.208;18.216;2024-02-28T03:07:30;0.50;99.90
12682;DHT22;6405;59.208;18.216;2024-02-28T03:09:55;0.50;99.90
12682;DHT22;6405;59.208;18.216;2024-02-28T03:12:21;0.50;99.90
12682;DHT22;6405;59.208;18.216;2024-02-28T03:14:48;0.50;99.90
12682;DHT22;6405;59.208;18.216;2024-02-28T03:17:14;0.50;99.90
12682;DHT22;6405;59.208;18.216;2024-02-28T03:19:41;0.50;99.90
12682;DHT22;6405;59.208;18.216;2024-02-28T03:22:07;0.50;99.90
12682;DHT22;6405;59.208;18.216;2024-02-28T03:24:32;0.60;99.90
12682;DHT22;6405;59.208;18.216;2024-02-28T03:27:01;0.50;99.90
12682;DHT22;6405;59.208;18.216;2024-02-28T03:29:27;0.50;99.90
12682;DHT22;6405;59.208;18.216;2024-02-28T03:31:53;0.50;99.90
12682;DHT22;6405;59.208;18.216;2024-02-28T03:34:19;0.60;99.90
12682;DHT22;6405;59.208;18.216;2024-02-28T03:36:45;0.50;99.90
12682;DHT22;6405;59.208;18.216;2024-02-28T03:39:11;0.50;99.90
12682;DHT22;6405;59.208;18.216;2024-02-28T03:41:37;0.50;99.90
12682;DHT22;6405;59.208;18.216;2024-02-28T03:44:04;0.50;99.90
12682;DHT22;6405;59.208;18.216;2024-02-28T03:46:30;0.50;99.90
12682;DHT22;6405;59.208;18.216;2024-02-28T03:48:56;0.50;99.90
12682;DHT22;6405;59.208;18.216;2024-02-28T03:51:21;0.40;99.90
12682;DHT22;6405;59.208;18.216;2024-02-28T03:53:47;0.40;99.90
12682;DHT22;6405;59.208;18.216;2024-02-28T03:56:13;0.50;99.90
12682;DHT22;6405;59.208;18.216;2024-02-28T03:58:40;0.40;99.90
12682;DHT22;6405;59.208;18.216;2024-02-28T04:01:06;0.50;99.90
12682;DHT22;6405;59.208;18.216;2024-02-28T04:03:32;0.50;99.90
12682;DHT22;6405;59.208;18.216;2024-02-28T04:05:57;0.50;99.90
12682;DHT22;6405;59.208;18.216;2024-02-28T04:08:24;0.60;99.90
12682;DHT22;6405;59.208;18.216;2024-02-28T04:10:49;0.50;99.90
12682;DHT22;6405;59.208;18.216;2024-02-28T04:13:18;0.70;99.90
12682;DHT22;6405;59.208;18.216;2024-02-28T04:15:44;0.50;99.90
12682;DHT22;6405;59.208;18.216;2024-02-28T04:18:11;0.50;99.90
12682;DHT22;6405;59.208;18.216;2024-02-28T04:20:37;0.50;99.90
12682;DHT22;6405;59.208;18.216;2024-02-28T04:23:04;0.50;99.90
12682;DHT22;6405;59.208;18.216;2024-02-28T04:25:29;0.40;99.90
12682;DHT22;6405;59.208;18.216;2024-02-28T04:27:55;0.50;99.90
12682;DHT22;6405;59.208;18.216;2024-02-28T04:30:22;0.70;99.90
12682;DHT22;6405;59.208;18.216;2024-02-28T04:32:48;0.40;99.90
12682;DHT22;6405;59.208;18.216;2024-02-28T04:35:14;0.40;99.90
12682;DHT22;6405;59.208;18.216;2024-02-28T04:37:44;0.50;99.90
12682;DHT22;6405;59.208;18.216;2024-02-28T04:40:11;0.40;99.90
12682;DHT22;6405;59.208;18.216;2024-02-28T04:42:37;0.40;99.90
12682;DHT22;6405;59.208;18.216;2024-02-28T04:45:04;0.40;99.90
12682;DHT22;6405;59.208;18.216;2024-02-28T04:47:30;0.50;99.90
12682;DHT22;6405;59.208;18.216;2024-02-28T04:49:56;0.40;99.90
12682;DHT22;6405;59.208;18.216;2024-02-28T04:52:22;0.40;99.90
12682;DHT22;6405;59.208;18.216;2024-02-28T04:54:48;0.50;99.90
12682;DHT22;6405;59.208;18.216;2024-02-28T04:57:14;0.50;99.90
12682;DHT22;6405;59.208;18.216;2024-02-28T04:59:42;0.50;99.90
12682;DHT22;6405;59.208;18.216;2024-02-28T05:02:08;0.40;99.90
12682;DHT22;6405;59.208;18.216;2024-02-28T05:04:34;0.50;99.90
12682;DHT22;6405;59.208;18.216;2024-02-28T05:07:00;0.50;99.90
12682;DHT22;6405;59.208;18.216;2024-02-28T05:09:25;0.40;99.90
12682;DHT22;6405;59.208;18.216;2024-02-28T05:11:51;0.40;99.90
12682;DHT22;6405;59.208;18.216;2024-02-28T05:14:17;0.40;99.90
12682;DHT22;6405;59.208;18.216;2024-02-28T05:16:42;0.60;99.90
12682;DHT22;6405;59.208;18.216;2024-02-28T05:19:08;0.40;99.90
12682;DHT22;6405;59.208;18.216;2024-02-28T05:21:44;0.40;99.90
12682;DHT22;6405;59.208;18.216;2024-02-28T05:24:10;0.40;99.90
12682;DHT22;6405;59.208;18.216;2024-02-28T05:26:36;0.40;99.90
12682;DHT22;6405;59.208;18.216;2024-02-28T05:29:03;0.50;99.90
12682;DHT22;6405;59.208;18.216;2024-02-28T05:31:29;0.50;99.90
12682;DHT22;6405;59.208;18.216;2024-02-28T05:33:55;0.50;99.90
12682;DHT22;6405;59.208;18.216;2024-02-28T05:36:28;0.50;99.90
12682;DHT22;6405;59.208;18.216;2024-02-28T05:38:56;0.50;99.90
12682;DHT22;6405;59.208;18.216;2024-02-28T05:41:22;0.50;99.90
12682;DHT22;6405;59.208;18.216;2024-02-28T05:43:49;0.50;99.90
12682;DHT22;6405;59.208;18.216;2024-02-28T05:46:15;0.50;99.90
12682;DHT22;6405;59.208;18.216;2024-02-28T05:48:45;0.50;99.90
12682;DHT22;6405;59.208;18.216;2024-02-28T05:51:12;0.50;99.90
12682;DHT22;6405;59.208;18.216;2024-02-28T05:53:39;0.50;99.90
12682;DHT22;6405;59.208;18.216;2024-02-28T05:56:06;0.50;99.90
12682;DHT22;6405;59.208;18.216;2024-02-28T05:58:42;0.50;99.90
12682;DHT22;6405;59.208;18.216;2024-02-28T06:01:09;0.50;99.90
12682;DHT22;6405;59.208;18.216;2024-02-28T06:03:36;0.50;99.90
12682;DHT22;6405;59.208;18.216;2024-02-28T06:06:02;0.50;99.90
12682;DHT22;6405;59.208;18.216;2024-02-28T06:08:34;0.50;99.90
12682;DHT22;6405;59.208;18.216;2024-02-28T06:11:00;0.50;99.90
12682;DHT22;6405;59.208;18.216;2024-02-28T06:13:27;0.50;99.90
12682;DHT22;6405;59.208;18.216;2024-02-28T06:15:54;0.70;99.90
12682;DHT22;6405;59.208;18.216;2024-02-28T06:18:20;0.60;99.90
12682;DHT22;6405;59.208;18.216;2024-02-28T06:20:48;0.60;99.90
12682;DHT22;6405;59.208;18.216;2024-02-28T06:23:14;0.60;99.90
12682;DHT22;6405;59.208;18.216;2024-02-28T06:25:40;0.60;99.90
12682;DHT22;6405;59.208;18.216;2024-02-28T06:28:05;0.60;99.90
12682;DHT22;6405;59.208;18.216;2024-02-28T06:30:32;0.60;99.90
12682;DHT22;6405;59.208;18.216;2024-02-28T06:33:01;0.80;99.90
12682;DHT22;6405;59.208;18.216;2024-02-28T06:35:27;0.60;99.90
12682;DHT22;6405;59.208;18.216;2024-02-28T06:37:53;0.60;99.90
12682;DHT22;6405;59.208;18.216;2024-02-28T06:40:20;0.70;99.90
12682;DHT22;6405;59.208;18.216;2024-02-28T06:42:46;0.60;99.90
12682;DHT22;6405;59.208;18.216;2024-02-28T06:45:11;0.80;99.90
12682;DHT22;6405;59.208;18.216;2024-02-28T06:47:37;0.70;99.90
12682;DHT22;6405;59.208;18.216;2024-02-28T06:50:04;0.90;99.90
12682;DHT22;6405;59.208;18.216;2024-02-28T06:52:30;0.70;99.90
12682;DHT22;6405;59.208;18.216;2024-02-28T06:54:56;0.70;99.90
12682;DHT22;6405;59.208;18.216;2024-02-28T06:57:22;0.90;99.90
12682;DHT22;6405;59.208;18.216;2024-02-28T06:59:48;0.80;99.90
12682;DHT22;6405;59.208;18.216;2024-02-28T07:02:14;0.80;99.90
12682;DHT22;6405;59.208;18.216;2024-02-28T07:04:41;0.80;99.90
12682;DHT22;6405;59.208;18.216;2024-02-28T07:07:07;0.80;99.90
12682;DHT22;6405;59.208;18.216;2024-02-28T07:09:33;1.00;99.90
12682;DHT22;6405;59.208;18.216;2024-02-28T07:11:59;0.80;99.90
12682;DHT22;6405;59.208;18.216;2024-02-28T07:14:26;0.80;99.90
12682;DHT22;6405;59.208;18.216;2024-02-28T07:16:52;0.90;99.90
12682;DHT22;6405;59.208;18.216;2024-02-28T07:19:18;0.90;99.90
12682;DHT22;6405;59.208;18.216;2024-02-28T07:21:44;0.90;99.90
12682;DHT22;6405;59.208;18.216;2024-02-28T07:24:09;1.00;99.90
12682;DHT22;6405;59.208;18.216;2024-02-28T07:26:35;0.90;99.90
12682;DHT22;6405;59.208;18.216;2024-02-28T07:29:01;1.10;99.90
12682;DHT22;6405;59.208;18.216;2024-02-28T07:31:27;1.00;99.90
12682;DHT22;6405;59.208;18.216;2024-02-28T07:33:53;1.00;99.90
12682;DHT22;6405;59.208;18.216;2024-02-28T07:36:19;1.20;99.90
12682;DHT22;6405;59.208;18.216;2024-02-28T07:38:45;1.10;99.90
12682;DHT22;6405;59.208;18.216;2024-02-28T07:41:11;1.10;99.90
12682;DHT22;6405;59.208;18.216;2024-02-28T07:43:37;1.00;99.90
12682;DHT22;6405;59.208;18.216;2024-02-28T07:46:09;1.10;99.90
12682;DHT22;6405;59.208;18.216;2024-02-28T07:48:37;1.10;99.90
12682;DHT22;6405;59.208;18.216;2024-02-28T07:51:06;1.30;99.90
12682;DHT22;6405;59.208;18.216;2024-02-28T07:53:32;1.20;99.90
12682;DHT22;6405;59.208;18.216;2024-02-28T07:55:58;1.30;99.90
12682;DHT22;6405;59.208;18.216;2024-02-28T07:58:24;1.10;99.90
12682;DHT22;6405;59.208;18.216;2024-02-28T08:00:50;1.30;99.90
12682;DHT22;6405;59.208;18.216;2024-02-28T08:03:18;1.10;99.90
12682;DHT22;6405;59.208;18.216;2024-02-28T08:05:44;1.20;99.90
12682;DHT22;6405;59.208;18.216;2024-02-28T08:08:10;1.20;99.90
12682;DHT22;6405;59.208;18.216;2024-02-28T08:10:37;1.20;99.90
12682;DHT22;6405;59.208;18.216;2024-02-28T08:13:04;1.20;99.90
12682;DHT22;6405;59.208;18.216;2024-02-28T08:15:30;1.20;99.90
12682;DHT22;6405;59.208;18.216;2024-02-28T08:17:55;1.20;99.90
12682;DHT22;6405;59.208;18.216;2024-02-28T08:20:21;1.30;99.90
12682;DHT22;6405;59.208;18.216;2024-02-28T08:22:47;1.30;99.90
12682;DHT22;6405;59.208;18.216;2024-02-28T08:25:13;1.20;99.90
12682;DHT22;6405;59.208;18.216;2024-02-28T08:27:39;1.20;99.90
12682;DHT22;6405;59.208;18.216;2024-02-28T08:30:06;1.30;99.90
12682;DHT22;6405;59.208;18.216;2024-02-28T08:32:32;1.30;99.90
12682;DHT22;6405;59.208;18.216;2024-02-28T08:34:58;1.30;99.90
12682;DHT22;6405;59.208;18.216;2024-02-28T08:37:24;1.30;99.90
12682;DHT22;6405;59.208;18.216;2024-02-28T08:39:50;1.40;99.90
12682;DHT22;6405;59.208;18.216;2024-02-28T08:42:16;1.60;99.90
12682;DHT22;6405;59.208;18.216;2024-02-28T08:44:41;1.40;99.90
12682;DHT22;6405;59.208;18.216;2024-02-28T08:47:07;1.40;99.90
12682;DHT22;6405;59.208;18.216;2024-02-28T08:49:39;1.40;99.90
12682;DHT22;6405;59.208;18.216;2024-02-28T08:52:04;1.50;99.90
12682;DHT22;6405;59.208;18.216;2024-02-28T08:54:30;1.50;99.90
12682;DHT22;6405;59.208;18.216;2024-02-28T08:56:56;1.60;99.90
12682;DHT22;6405;59.208;18.216;2024-02-28T08:59:22;1.50;99.90
12682;DHT22;6405;59.208;18.216;2024-02-28T09:01:48;1.50;99.90
12682;DHT22;6405;59.208;18.216;2024-02-28T09:04:14;1.60;99.90
12682;DHT22;6405;59.208;18.216;2024-02-28T09:06:40;1.60;99.90
12682;DHT22;6405;59.208;18.216;2024-02-28T09:09:06;1.60;99.90
12682;DHT22;6405;59.208;18.216;2024-02-28T09:11:32;1.60;99.90
12682;DHT22;6405;59.208;18.216;2024-02-28T09:13:59;1.70;99.90
12682;DHT22;6405;59.208;18.216;2024-02-28T09:16:24;1.70;99.90
12682;DHT22;6405;59.208;18.216;2024-02-28T09:18:50;1.70;99.90
12682;DHT22;6405;59.208;18.216;2024-02-28T09:21:16;1.70;99.90
12682;DHT22;6405;59.208;18.216;2024-02-28T09:23:42;1.80;99.90
12682;DHT22;6405;59.208;18.216;2024-02-28T09:26:07;1.90;99.90
12682;DHT22;6405;59.208;18.216;2024-02-28T09:28:33;1.80;99.90
12682;DHT22;6405;59.208;18.216;2024-02-28T09:30:59;1.80;99.90
12682;DHT22;6405;59.208;18.216;2024-02-28T09:33:25;1.70;99.90
12682;DHT22;6405;59.208;18.216;2024-02-28T09:35:51;1.70;99.90
12682;DHT22;6405;59.208;18.216;2024-02-28T09:38:16;1.60;99.90
12682;DHT22;6405;59.208;18.216;2024-02-28T09:40:46;1.60;99.90
12682;DHT22;6405;59.208;18.216;2024-02-28T09:43:19;1.70;99.90
12682;DHT22;6405;59.208;18.216;2024-02-28T09:45:46;1.60;99.90
12682;DHT22;6405;59.208;18.216;2024-02-28T09:48:12;1.70;99.90
12682;DHT22;6405;59.208;18.216;2024-02-28T09:50:39;1.70;99.90
12682;DHT22;6405;59.208;18.216;2024-02-28T09:53:05;1.70;99.90
12682;DHT22;6405;59.208;18.216;2024-02-28T09:55:31;1.70;99.90
12682;DHT22;6405;59.208;18.216;2024-02-28T09:57:58;1.70;99.90
12682;DHT22;6405;59.208;18.216;2024-02-28T10:00:25;1.80;99.90
12682;DHT22;6405;59.208;18.216;2024-02-28T10:02:52;1.80;99.90
12682;DHT22;6405;59.208;18.216;2024-02-28T10:05:19;1.80;99.90
12682;DHT22;6405;59.208;18.216;2024-02-28T10:07:46;1.90;99.90
12682;DHT22;6405;59.208;18.216;2024-02-28T10:10:12;1.90;99.90
12682;DHT22;6405;59.208;18.216;2024-02-28T10:12:41;1.90;99.90
12682;DHT22;6405;59.208;18.216;2024-02-28T10:15:11;1.90;99.90
12682;DHT22;6405;59.208;18.216;2024-02-28T10:17:37;1.90;99.90
12682;DHT22;6405;59.208;18.216;2024-02-28T10:20:03;2.00;99.90
12682;DHT22;6405;59.208;18.216;2024-02-28T10:22:36;2.00;99.90
12682;DHT22;6405;59.208;18.216;2024-02-28T10:25:02;2.00;99.90
12682;DHT22;6405;59.208;18.216;2024-02-28T10:27:32;2.00;99.90
12682;DHT22;6405;59.208;18.216;2024-02-28T10:29:58;2.00;99.90
12682;DHT22;6405;59.208;18.216;2024-02-28T10:32:23;2.00;99.90
12682;DHT22;6405;59.208;18.216;2024-02-28T10:34:49;2.00;99.90
12682;DHT22;6405;59.208;18.216;2024-02-28T10:37:16;2.00;99.90
12682;DHT22;6405;59.208;18.216;2024-02-28T10:39:43;2.00;99.90
12682;DHT22;6405;59.208;18.216;2024-02-28T10:42:11;2.00;99.90
12682;DHT22;6405;59.208;18.216;2024-02-28T10:44:39;2.00;99.90
12682;DHT22;6405;59.208;18.216;2024-02-28T10:47:08;2.10;99.90
12682;DHT22;6405;59.208;18.216;2024-02-28T10:49:33;2.10;99.90
12682;DHT22;6405;59.208;18.216;2024-02-28T10:51:59;2.20;99.90
12682;DHT22;6405;59.208;18.216;2024-02-28T10:54:29;2.10;99.90
12682;DHT22;6405;59.208;18.216;2024-02-28T10:56:55;2.00;99.90
12682;DHT22;6405;59.208;18.216;2024-02-28T10:59:23;2.00;99.90
12682;DHT22;6405;59.208;18.216;2024-02-28T11:01:51;2.00;99.90
12682;DHT22;6405;59.208;18.216;2024-02-28T11:04:17;2.00;99.90
12682;DHT22;6405;59.208;18.216;2024-02-28T11:06:51;1.90;99.90
12682;DHT22;6405;59.208;18.216;2024-02-28T11:09:24;1.90;99.90
12682;DHT22;6405;59.208;18.216;2024-02-28T11:11:51;2.10;99.90
12682;DHT22;6405;59.208;18.216;2024-02-28T11:14:17;2.10;99.90
12682;DHT22;6405;59.208;18.216;2024-02-28T11:16:46;1.90;99.90
12682;DHT22;6405;59.208;18.216;2024-02-28T11:19:22;1.90;99.90
12682;DHT22;6405;59.208;18.216;2024-02-28T11:21:57;1.80;99.90
12682;DHT22;6405;59.208;18.216;2024-02-28T11:24:24;1.80;99.90
12682;DHT22;6405;59.208;18.216;2024-02-28T11:26:52;1.80;99.90
12682;DHT22;6405;59.208;18.216;2024-02-28T11:29:25;1.90;99.90
12682;DHT22;6405;59.208;18.216;2024-02-28T11:31:52;2.00;99.90
12682;DHT22;6405;59.208;18.216;2024-02-28T11:34:17;2.30;99.90
12682;DHT22;6405;59.208;18.216;2024-02-28T11:36:43;2.20;99.90
12682;DHT22;6405;59.208;18.216;2024-02-28T11:39:13;2.20;99.90
12682;DHT22;6405;59.208;18.216;2024-02-28T11:41:38;2.30;99.90
12682;DHT22;6405;59.208;18.216;2024-02-28T11:44:05;2.30;99.90
12682;DHT22;6405;59.208;18.216;2024-02-28T11:46:31;2.40;99.90
12682;DHT22;6405;59.208;18.216;2024-02-28T11:48:57;2.60;99.90
12682;DHT22;6405;59.208;18.216;2024-02-28T11:51:23;2.50;99.90
12682;DHT22;6405;59.208;18.216;2024-02-28T11:53:49;2.50;99.90
12682;DHT22;6405;59.208;18.216;2024-02-28T11:56:15;2.50;99.90
12682;DHT22;6405;59.208;18.216;2024-02-28T11:58:52;2.60;99.90
12682;DHT22;6405;59.208;18.216;2024-02-28T12:01:19;2.60;99.90
12682;DHT22;6405;59.208;18.216;2024-02-28T12:03:45;2.70;99.90
12682;DHT22;6405;59.208;18.216;2024-02-28T12:06:14;2.90;99.90
12682;DHT22;6405;59.208;18.216;2024-02-28T12:08:40;2.80;99.90
12682;DHT22;6405;59.208;18.216;2024-02-28T12:11:08;2.90;99.90
12682;DHT22;6405;59.208;18.216;2024-02-28T12:13:37;2.90;99.90
12682;DHT22;6405;59.208;18.216;2024-02-28T12:16:03;3.10;99.90
12682;DHT22;6405;59.208;18.216;2024-02-28T12:18:29;3.10;99.90
12682;DHT22;6405;59.208;18.216;2024-02-28T12:20:55;3.00;99.90
12682;DHT22;6405;59.208;18.216;2024-02-28T12:23:21;3.00;99.90
12682;DHT22;6405;59.208;18.216;2024-02-28T12:25:46;3.00;99.90
12682;DHT22;6405;59.208;18.216;2024-02-28T12:28:12;3.00;99.90
12682;DHT22;6405;59.208;18.216;2024-02-28T12:30:42;2.90;99.90
12682;DHT22;6405;59.208;18.216;2024-02-28T12:33:08;3.00;99.90
12682;DHT22;6405;59.208;18.216;2024-02-28T12:35:34;2.90;99.90
12682;DHT22;6405;59.208;18.216;2024-02-28T12:38:00;2.80;99.90
12682;DHT22;6405;59.208;18.216;2024-02-28T12:40:25;2.60;99.90
12682;DHT22;6405;59.208;18.216;2024-02-28T12:42:51;2.60;99.90
12682;DHT22;6405;59.208;18.216;2024-02-28T12:45:17;2.50;99.90
12682;DHT22;6405;59.208;18.216;2024-02-28T12:47:43;2.60;99.90
12682;DHT22;6405;59.208;18.216;2024-02-28T12:50:09;2.60;99.90
12682;DHT22;6405;59.208;18.216;2024-02-28T12:52:36;2.60;99.90
12682;DHT22;6405;59.208;18.216;2024-02-28T12:55:02;2.70;99.90
12682;DHT22;6405;59.208;18.216;2024-02-28T12:57:28;2.70;99.90
12682;DHT22;6405;59.208;18.216;2024-02-28T12:59:54;2.70;99.90
12682;DHT22;6405;59.208;18.216;2024-02-28T13:02:21;2.70;99.90
12682;DHT22;6405;59.208;18.216;2024-02-28T13:04:47;2.90;99.90
12682;DHT22;6405;59.208;18.216;2024-02-28T13:07:14;3.20;99.90
12682;DHT22;6405;59.208;18.216;2024-02-28T13:09:40;3.30;99.90
12682;DHT22;6405;59.208;18.216;2024-02-28T13:12:06;3.40;99.90
12682;DHT22;6405;59.208;18.216;2024-02-28T13:14:32;3.40;99.90
12682;DHT22;6405;59.208;18.216;2024-02-28T13:16:59;3.20;99.90
12682;DHT22;6405;59.208;18.216;2024-02-28T13:19:25;3.20;99.90
12682;DHT22;6405;59.208;18.216;2024-02-28T13:21:50;3.10;99.90
12682;DHT22;6405;59.208;18.216;2024-02-28T13:24:16;3.10;99.90
12682;DHT22;6405;59.208;18.216;2024-02-28T13:26:42;3.00;99.90
12682;DHT22;6405;59.208;18.216;2024-02-28T13:29:08;3.20;99.90
12682;DHT22;6405;59.208;18.216;2024-02-28T13:31:34;3.10;99.90
12682;DHT22;6405;59.208;18.216;2024-02-28T13:34:00;3.10;99.90
12682;DHT22;6405;59.208;18.216;2024-02-28T13:36:28;3.20;99.90
12682;DHT22;6405;59.208;18.216;2024-02-28T13:38:55;3.30;99.90
12682;DHT22;6405;59.208;18.216;2024-02-28T13:41:21;3.40;99.90
12682;DHT22;6405;59.208;18.216;2024-02-28T13:43:47;3.40;99.90
12682;DHT22;6405;59.208;18.216;2024-02-28T13:46:13;3.30;99.90
12682;DHT22;6405;59.208;18.216;2024-02-28T13:48:39;3.10;99.90
12682;DHT22;6405;59.208;18.216;2024-02-28T13:51:05;3.10;99.90
12682;DHT22;6405;59.208;18.216;2024-02-28T13:53:31;3.00;99.90
12682;DHT22;6405;59.208;18.216;2024-02-28T13:55:57;2.90;99.90
12682;DHT22;6405;59.208;18.216;2024-02-28T13:58:22;3.00;99.90
12682;DHT22;6405;59.208;18.216;2024-02-28T14:00:48;3.00;99.90
12682;DHT22;6405;59.208;18.216;2024-02-28T14:03:14;3.00;99.90
12682;DHT22;6405;59.208;18.216;2024-02-28T14:05:40;3.10;99.90
12682;DHT22;6405;59.208;18.216;2024-02-28T14:08:06;3.00;99.90
12682;DHT22;6405;59.208;18.216;2024-02-28T14:10:37;3.00;99.90
12682;DHT22;6405;59.208;18.216;2024-02-28T14:13:03;2.90;99.90
12682;DHT22;6405;59.208;18.216;2024-02-28T14:15:29;2.90;99.90
12682;DHT22;6405;59.208;18.216;2024-02-28T14:17:55;2.90;99.90
12682;DHT22;6405;59.208;18.216;2024-02-28T14:20:21;2.90;99.90
12682;DHT22;6405;59.208;18.216;2024-02-28T14:22:46;2.90;99.90
12682;DHT22;6405;59.208;18.216;2024-02-28T14:25:13;2.90;99.90
12682;DHT22;6405;59.208;18.216;2024-02-28T14:27:41;2.90;99.90
12682;DHT22;6405;59.208;18.216;2024-02-28T14:30:08;2.90;99.90
12682;DHT22;6405;59.208;18.216;2024-02-28T14:32:35;2.80;99.90
12682;DHT22;6405;59.208;18.216;2024-02-28T14:35:05;2.90;99.90
12682;DHT22;6405;59.208;18.216;2024-02-28T14:37:33;2.70;99.90
12682;DHT22;6405;59.208;18.216;2024-02-28T14:40:00;2.80;99.90
12682;DHT22;6405;59.208;18.216;2024-02-28T14:42:27;2.60;99.90
12682;DHT22;6405;59.208;18.216;2024-02-28T14:44:53;2.50;99.90
12682;DHT22;6405;59.208;18.216;2024-02-28T14:47:19;2.60;99.90
12682;DHT22;6405;59.208;18.216;2024-02-28T14:49:46;2.50;99.90
12682;DHT22;6405;59.208;18.216;2024-02-28T14:52:12;2.50;99.90
12682;DHT22;6405;59.208;18.216;2024-02-28T14:54:39;2.50;99.90
12682;DHT22;6405;59.208;18.216;2024-02-28T14:57:05;2.60;99.90
12682;DHT22;6405;59.208;18.216;2024-02-28T14:59:31;2.40;99.90
12682;DHT22;6405;59.208;18.216;2024-02-28T15:01:58;2.30;99.90
12682;DHT22;6405;59.208;18.216;2024-02-28T15:04:23;2.30;99.90
12682;DHT22;6405;59.208;18.216;2024-02-28T15:06:50;2.30;99.90
12682;DHT22;6405;59.208;18.216;2024-02-28T15:09:20;2.20;99.90
12682;DHT22;6405;59.208;18.216;2024-02-28T15:11:50;2.20;99.90
12682;DHT22;6405;59.208;18.216;2024-02-28T15:14:16;2.20;99.90
12682;DHT22;6405;59.208;18.216;2024-02-28T15:16:42;2.20;99.90
12682;DHT22;6405;59.208;18.216;2024-02-28T15:19:08;2.20;99.90
12682;DHT22;6405;59.208;18.216;2024-02-28T15:21:34;2.20;99.90
12682;DHT22;6405;59.208;18.216;2024-02-28T15:24:02;2.10;99.90
12682;DHT22;6405;59.208;18.216;2024-02-28T15:26:29;2.10;99.90
12682;DHT22;6405;59.208;18.216;2024-02-28T15:28:55;2.00;99.90
12682;DHT22;6405;59.208;18.216;2024-02-28T15:31:21;1.90;99.90
12682;DHT22;6405;59.208;18.216;2024-02-28T15:33:50;1.80;99.90
12682;DHT22;6405;59.208;18.216;2024-02-28T15:36:16;1.80;99.90
12682;DHT22;6405;59.208;18.216;2024-02-28T15:38:41;1.70;99.90
12682;DHT22;6405;59.208;18.216;2024-02-28T15:41:07;1.70;99.90